Time;durP1;ratioP1;P1;durP2;ratioP2;P2;SDS_P1;SDS_P2;PMS_P1;PMS_P2;Temp;Humidity;BMP_temperature;BMP_pressure;BME280_temperature;BME280_humidity;BME280_pressure;Samples;Min_cycle;Max_cycle;Signal;HPM_P1;HPM_P2
2022/07/28 00:00:46;;;;;;;0.10;0.10;;;15.10;72.80;;;;;;5032364;28;20501;-67
2022/07/28 00:03:11;;;;;;;0.00;0.00;;;15.00;72.90;;;;;;5050310;28;20040;-67
2022/07/28 00:05:37;;;;;;;0.00;0.00;;;15.00;72.90;;;;;;5050356;28;20048;-67
2022/07/28 00:08:03;;;;;;;0.00;0.00;;;15.00;72.90;;;;;;5050188;28;20120;-67
2022/07/28 00:10:31;;;;;;;0.00;0.00;;;15.00;73.90;;;;;;5050442;28;20072;-66
2022/07/28 00:12:58;;;;;;;0.00;0.00;;;15.00;73.60;;;;;;5050391;28;20124;-66
2022/07/28 00:15:24;;;;;;;0.00;0.00;;;15.00;73.80;;;;;;5049882;28;20060;-67
2022/07/28 00:17:50;;;;;;;0.00;0.00;;;15.00;73.80;;;;;;5050078;28;20090;-67
2022/07/28 00:20:16;;;;;;;0.00;0.00;;;15.00;73.70;;;;;;5049996;28;20406;-66
2022/07/28 00:22:43;;;;;;;0.00;0.00;;;15.00;73.80;;;;;;5050032;28;20444;-66
2022/07/28 00:25:09;;;;;;;0.00;0.00;;;14.90;73.80;;;;;;5049866;28;20040;-67
2022/07/28 00:27:35;;;;;;;0.00;0.00;;;14.90;73.70;;;;;;5050043;28;20041;-67
2022/07/28 00:30:00;;;;;;;0.00;0.00;;;14.90;73.80;;;;;;5049127;28;20047;-67
2022/07/28 00:32:26;;;;;;;0.00;0.00;;;14.90;74.00;;;;;;5031419;28;20716;-66
2022/07/28 00:34:52;;;;;;;0.00;0.00;;;14.90;74.00;;;;;;5049637;28;20056;-66
2022/07/28 00:37:17;;;;;;;0.00;0.00;;;14.90;73.90;;;;;;5050173;28;20075;-67
2022/07/28 00:39:43;;;;;;;0.00;0.00;;;14.90;74.10;;;;;;5031496;28;20137;-66
2022/07/28 00:42:09;;;;;;;0.00;0.00;;;14.90;74.20;;;;;;5049420;28;20126;-66
2022/07/28 00:44:34;;;;;;;0.00;0.00;;;14.90;74.30;;;;;;5049189;28;20076;-67
2022/07/28 00:47:00;;;;;;;0.60;0.30;;;14.90;74.40;;;;;;5049103;28;20127;-67
2022/07/28 00:49:26;;;;;;;0.00;0.00;;;14.80;74.40;;;;;;5048997;28;20041;-66
2022/07/28 00:51:52;;;;;;;0.00;0.00;;;14.90;74.20;;;;;;5049862;28;20116;-67
2022/07/28 00:54:18;;;;;;;0.00;0.00;;;14.80;74.40;;;;;;5048945;28;20073;-67
2022/07/28 00:56:43;;;;;;;0.08;0.08;;;14.90;74.60;;;;;;5031734;28;20559;-67
2022/07/28 00:59:09;;;;;;;0.00;0.00;;;14.90;74.70;;;;;;5048987;28;20071;-67
2022/07/28 01:01:35;;;;;;;0.00;0.00;;;14.90;74.80;;;;;;5014880;28;20066;-67
2022/07/28 01:04:01;;;;;;;0.00;0.00;;;14.90;74.90;;;;;;5049037;28;20041;-67
2022/07/28 01:06:42;;;;;;;0.00;0.00;;;14.90;75.40;;;;;;5048538;28;20116;-67
2022/07/28 01:09:39;;;;;;;0.00;0.00;;;14.90;75.30;;;;;;5014884;28;20048;-67
2022/07/28 01:12:25;;;;;;;0.00;0.00;;;15.00;75.70;;;;;;5031843;28;20444;-66
2022/07/28 01:14:54;;;;;;;0.00;0.00;;;14.90;76.40;;;;;;5048202;28;20048;-67
2022/07/28 01:17:43;;;;;;;0.00;0.00;;;14.90;76.10;;;;;;5047442;28;20087;-66
2022/07/28 01:20:15;;;;;;;0.00;0.00;;;14.90;75.90;;;;;;5048416;28;20048;-66
2022/07/28 01:22:55;;;;;;;0.00;0.00;;;14.90;75.60;;;;;;5048661;28;20570;-67
2022/07/28 01:25:53;;;;;;;0.00;0.00;;;14.90;75.40;;;;;;5048715;28;20102;-66
2022/07/28 01:28:47;;;;;;;0.00;0.00;;;14.80;75.50;;;;;;5048007;28;20057;-67
2022/07/28 01:31:20;;;;;;;0.10;0.10;;;14.80;75.40;;;;;;5047947;28;20048;-67
2022/07/28 01:34:05;;;;;;;0.00;0.00;;;14.80;75.20;;;;;;5048515;28;20514;-66
2022/07/28 01:36:38;;;;;;;0.00;0.00;;;14.70;75.10;;;;;;5042568;28;20116;-66
2022/07/28 01:39:04;;;;;;;0.00;0.00;;;14.70;75.10;;;;;;5030514;28;20516;-67
2022/07/28 01:41:32;;;;;;;0.00;0.00;;;14.70;75.20;;;;;;5048716;28;20153;-66
2022/07/28 01:44:04;;;;;;;0.10;0.10;;;14.70;75.30;;;;;;5030962;28;20101;-67
2022/07/28 01:46:31;;;;;;;0.00;0.00;;;14.60;75.30;;;;;;5030789;28;20041;-67
2022/07/28 01:48:58;;;;;;;0.00;0.00;;;14.60;75.30;;;;;;5048956;28;20037;-67
2022/07/28 01:51:27;;;;;;;0.00;0.00;;;14.60;75.50;;;;;;5048420;28;20075;-66
2022/07/28 01:53:57;;;;;;;0.00;0.00;;;14.60;75.50;;;;;;5048972;28;20037;-66
2022/07/28 01:56:25;;;;;;;0.10;0.10;;;14.60;75.60;;;;;;5048116;28;20048;-67
2022/07/28 01:58:51;;;;;;;0.00;0.00;;;14.60;76.00;;;;;;5048059;28;20048;-67
2022/07/28 02:01:19;;;;;;;0.00;0.00;;;14.60;76.50;;;;;;5048443;28;20041;-66
2022/07/28 02:03:46;;;;;;;0.00;0.00;;;14.60;76.40;;;;;;5048663;28;20037;-66
2022/07/28 02:06:14;;;;;;;0.00;0.00;;;14.60;76.20;;;;;;5048066;28;20045;-67
2022/07/28 02:08:40;;;;;;;0.00;0.00;;;14.60;76.10;;;;;;5050209;28;20053;-67
2022/07/28 02:13:52;;;;;;;0.00;0.00;;;14.50;75.80;;;;;;5034534;28;20049;-66
2022/07/28 02:16:21;;;;;;;0.00;0.00;;;14.40;75.70;;;;;;5017712;28;20049;-67
2022/07/28 02:18:48;;;;;;;0.00;0.00;;;14.50;75.90;;;;;;5052764;28;20060;-67
2022/07/28 02:21:15;;;;;;;0.00;0.00;;;14.40;75.90;;;;;;5051768;28;20041;-66
2022/07/28 02:23:44;;;;;;;0.00;0.00;;;14.50;76.40;;;;;;5052431;28;20128;-67
2022/07/28 02:26:12;;;;;;;0.00;0.00;;;14.40;76.10;;;;;;5051911;28;20494;-67
2022/07/28 02:28:42;;;;;;;0.00;0.00;;;14.40;76.00;;;;;;5034496;28;20535;-67
2022/07/28 02:31:26;;;;;;;0.10;0.10;;;14.40;75.90;;;;;;5051493;28;20457;-66
2022/07/28 02:33:57;;;;;;;0.00;0.00;;;14.40;75.90;;;;;;5046860;28;20049;-67
2022/07/28 02:36:29;;;;;;;0.00;0.00;;;14.30;76.10;;;;;;5051831;28;20689;-66
2022/07/28 02:39:00;;;;;;;0.00;0.00;;;14.40;76.00;;;;;;5051858;28;20043;-67
2022/07/28 02:41:27;;;;;;;0.00;0.00;;;14.30;75.80;;;;;;5013745;28;20526;-67
2022/07/28 02:43:57;;;;;;;0.10;0.10;;;14.20;75.70;;;;;;5031771;28;20111;-66
2022/07/28 02:46:25;;;;;;;0.00;0.00;;;14.20;75.80;;;;;;5031401;28;20041;-67
2022/07/28 02:49:03;;;;;;;0.00;0.00;;;14.20;76.30;;;;;;5032149;28;20585;-66
2022/07/28 02:51:30;;;;;;;0.03;0.03;;;14.20;76.80;;;;;;5031834;28;20133;-67
2022/07/28 02:53:57;;;;;;;0.00;0.00;;;14.10;77.20;;;;;;5032663;28;20042;-66
2022/07/28 02:56:24;;;;;;;0.00;0.00;;;14.10;77.20;;;;;;5032342;28;20112;-67
2022/07/28 02:58:51;;;;;;;0.00;0.00;;;14.10;77.00;;;;;;5031547;28;20456;-68
2022/07/28 03:01:18;;;;;;;0.00;0.00;;;14.10;76.90;;;;;;5029933;28;20521;-66
2022/07/28 03:03:45;;;;;;;0.05;0.05;;;14.10;76.90;;;;;;5031243;28;20131;-67
2022/07/28 03:06:11;;;;;;;0.00;0.00;;;14.10;76.90;;;;;;5031579;28;20406;-66
2022/07/28 03:08:37;;;;;;;0.00;0.00;;;14.00;77.10;;;;;;5031384;28;20118;-67
2022/07/28 03:11:07;;;;;;;0.00;0.00;;;14.00;77.20;;;;;;5030730;28;20069;-67
2022/07/28 03:13:33;;;;;;;0.00;0.00;;;14.10;77.30;;;;;;5031343;28;20049;-67
2022/07/28 03:15:58;;;;;;;0.00;0.00;;;14.10;77.40;;;;;;5030896;28;20037;-67
2022/07/28 03:18:26;;;;;;;0.00;0.00;;;14.10;77.50;;;;;;5031222;28;20128;-67
2022/07/28 03:20:52;;;;;;;0.10;0.10;;;14.10;77.50;;;;;;5029092;28;20041;-67
2022/07/28 03:23:19;;;;;;;0.00;0.00;;;14.10;77.60;;;;;;5030965;28;20087;-67
2022/07/28 03:25:50;;;;;;;0.00;0.00;;;14.10;78.00;;;;;;5030935;28;20048;-66
2022/07/28 03:28:19;;;;;;;0.00;0.00;;;14.10;78.40;;;;;;5013782;28;20072;-67
2022/07/28 03:30:50;;;;;;;0.00;0.00;;;14.10;78.10;;;;;;5030437;28;20037;-66
2022/07/28 03:33:17;;;;;;;0.00;0.00;;;14.10;77.80;;;;;;5030771;28;20041;-66
2022/07/28 03:35:47;;;;;;;0.08;0.08;;;14.10;77.80;;;;;;5031050;28;20037;-67
2022/07/28 03:38:17;;;;;;;0.00;0.00;;;14.10;77.60;;;;;;5030863;28;20042;-67
2022/07/28 03:40:45;;;;;;;0.00;0.00;;;14.10;77.40;;;;;;5040539;28;20399;-66
2022/07/28 03:43:12;;;;;;;0.00;0.00;;;14.00;77.50;;;;;;5050225;28;20076;-66
2022/07/28 03:45:37;;;;;;;0.00;0.00;;;14.00;77.20;;;;;;5050710;28;20124;-66
2022/07/28 03:48:03;;;;;;;0.00;0.00;;;13.90;77.00;;;;;;5050633;28;20120;-66
2022/07/28 03:50:31;;;;;;;0.00;0.00;;;13.80;77.20;;;;;;5050527;28;20049;-66
2022/07/28 03:52:57;;;;;;;0.00;0.00;;;13.90;77.60;;;;;;5050177;28;20047;-66
2022/07/28 03:55:24;;;;;;;0.00;0.00;;;13.80;77.80;;;;;;5050340;28;20052;-66
2022/07/28 03:57:50;;;;;;;0.00;0.00;;;13.90;77.50;;;;;;5050624;28;20048;-66
2022/07/28 04:00:18;;;;;;;0.00;0.00;;;13.90;77.60;;;;;;5049848;28;20045;-66
2022/07/28 04:02:45;;;;;;;0.00;0.00;;;13.90;77.70;;;;;;5049386;28;20045;-66
2022/07/28 04:05:16;;;;;;;0.00;0.00;;;13.90;78.30;;;;;;5028362;28;20045;-67
2022/07/28 04:07:42;;;;;;;0.00;0.00;;;13.90;78.90;;;;;;5049761;28;20040;-66
2022/07/28 04:10:10;;;;;;;0.00;0.00;;;13.90;78.90;;;;;;5050890;28;20045;-67
2022/07/28 04:12:56;;;;;;;0.00;0.00;;;13.80;78.60;;;;;;5015620;28;20048;-67
2022/07/28 04:15:23;;;;;;;0.00;0.00;;;13.80;78.40;;;;;;5048663;28;20048;-67
2022/07/28 04:17:50;;;;;;;0.00;0.00;;;13.80;78.50;;;;;;5049480;28;20045;-67
2022/07/28 04:20:16;;;;;;;0.00;0.00;;;13.80;78.70;;;;;;5049631;28;20076;-67
2022/07/28 04:22:43;;;;;;;0.00;0.00;;;13.80;79.20;;;;;;5049711;28;20071;-67
2022/07/28 04:25:09;;;;;;;0.00;0.00;;;13.70;78.80;;;;;;5049906;28;20041;-68
2022/07/28 04:27:35;;;;;;;0.08;0.08;;;13.70;79.00;;;;;;5049986;28;20102;-68
2022/07/28 04:30:07;;;;;;;0.00;0.00;;;13.60;78.90;;;;;;5049645;28;20073;-69
2022/07/28 04:32:32;;;;;;;0.10;0.10;;;13.60;79.00;;;;;;5030868;28;20600;-69
2022/07/28 04:34:58;;;;;;;0.00;0.00;;;13.70;78.90;;;;;;5032088;28;20139;-69
2022/07/28 04:37:24;;;;;;;0.00;0.00;;;13.60;78.80;;;;;;5049015;28;20043;-69
2022/07/28 04:39:49;;;;;;;0.00;0.00;;;13.60;78.50;;;;;;5049670;28;20088;-68
2022/07/28 04:42:17;;;;;;;0.00;0.00;;;13.60;78.40;;;;;;5049414;28;20076;-68
2022/07/28 04:44:44;;;;;;;0.00;0.00;;;13.60;78.50;;;;;;5048423;28;20048;-68
2022/07/28 04:47:10;;;;;;;0.00;0.00;;;13.60;78.60;;;;;;5049465;28;20056;-68
2022/07/28 04:49:36;;;;;;;0.03;0.03;;;13.60;78.60;;;;;;5049294;28;20135;-68
2022/07/28 04:52:02;;;;;;;0.00;0.00;;;13.60;78.70;;;;;;5049298;28;20065;-68
2022/07/28 04:54:27;;;;;;;0.00;0.00;;;13.70;78.80;;;;;;5030477;28;20044;-68
2022/07/28 04:56:53;;;;;;;0.00;0.00;;;13.70;79.00;;;;;;5048170;28;20041;-68
2022/07/28 04:59:18;;;;;;;0.00;0.00;;;13.70;79.20;;;;;;5048679;28;20045;-68
2022/07/28 05:01:44;;;;;;;0.00;0.00;;;13.80;79.20;;;;;;5048577;28;20036;-68
2022/07/28 05:04:09;;;;;;;0.00;0.00;;;13.80;79.00;;;;;;5009050;28;20053;-67
2022/07/28 05:06:35;;;;;;;0.00;0.00;;;13.80;79.00;;;;;;5045943;28;20037;-67
2022/07/28 05:09:01;;;;;;;0.10;0.10;;;13.90;80.00;;;;;;5048070;28;20049;-67
2022/07/28 05:11:27;;;;;;;0.00;0.00;;;14.00;80.10;;;;;;5029928;28;20074;-67
2022/07/28 05:13:52;;;;;;;0.00;0.00;;;14.00;79.80;;;;;;5048238;28;20645;-67
2022/07/28 05:16:18;;;;;;;0.00;0.00;;;14.10;79.70;;;;;;5047963;28;20040;-68
2022/07/28 05:18:44;;;;;;;0.00;0.00;;;14.20;79.90;;;;;;5048264;28;20441;-68
2022/07/28 05:21:10;;;;;;;0.00;0.00;;;14.20;79.60;;;;;;5048535;28;20063;-67
2022/07/28 05:23:36;;;;;;;0.00;0.00;;;14.30;79.70;;;;;;5047901;28;20045;-67
2022/07/28 05:26:03;;;;;;;0.00;0.00;;;14.40;80.30;;;;;;5047850;28;20041;-67
2022/07/28 05:28:32;;;;;;;0.00;0.00;;;14.50;80.10;;;;;;5048178;28;20057;-73
2022/07/28 05:30:58;;;;;;;0.00;0.00;;;14.50;80.90;;;;;;5048238;28;20072;-78
2022/07/28 05:33:24;;;;;;;0.00;0.00;;;14.60;80.50;;;;;;5048086;28;20494;-68
2022/07/28 05:35:53;;;;;;;0.00;0.00;;;14.70;80.50;;;;;;5030216;28;20486;-68
2022/07/28 05:38:18;;;;;;;0.00;0.00;;;14.80;80.00;;;;;;5029852;28;20136;-68
2022/07/28 05:40:45;;;;;;;0.00;0.00;;;14.90;79.80;;;;;;5047718;28;20137;-68
2022/07/28 05:43:11;;;;;;;0.00;0.00;;;15.00;80.00;;;;;;5029393;28;20060;-68
2022/07/28 05:45:37;;;;;;;0.00;0.00;;;15.10;79.90;;;;;;5048054;28;20049;-69
2022/07/28 05:48:03;;;;;;;0.00;0.00;;;15.10;79.90;;;;;;5047867;28;20090;-66
2022/07/28 05:50:28;;;;;;;0.00;0.00;;;15.20;79.70;;;;;;5047929;28;20048;-67
2022/07/28 05:52:54;;;;;;;0.00;0.00;;;15.30;79.80;;;;;;5047255;28;20103;-67
2022/07/28 05:55:19;;;;;;;0.00;0.00;;;15.40;79.60;;;;;;5036713;28;20081;-67
2022/07/28 05:57:45;;;;;;;0.00;0.00;;;15.50;79.30;;;;;;5040604;28;20045;-67
2022/07/28 06:00:16;;;;;;;0.00;0.00;;;15.60;79.10;;;;;;5046865;28;20482;-67
2022/07/28 06:02:47;;;;;;;0.00;0.00;;;15.60;79.10;;;;;;5047599;28;20041;-67
2022/07/28 06:05:14;;;;;;;0.00;0.00;;;15.60;78.90;;;;;;5046592;28;20056;-67
2022/07/28 06:07:39;;;;;;;0.00;0.00;;;15.80;78.60;;;;;;5046966;28;20115;-67
2022/07/28 06:10:06;;;;;;;0.00;0.00;;;15.90;78.50;;;;;;5047436;28;20668;-75
2022/07/28 06:12:37;;;;;;;0.00;0.00;;;16.10;79.70;;;;;;5028432;28;20063;-67
2022/07/28 06:15:04;;;;;;;0.00;0.00;;;16.50;78.10;;;;;;5047106;28;20049;-68
2022/07/28 06:17:29;;;;;;;0.00;0.00;;;16.70;76.20;;;;;;5047439;28;20454;-68
2022/07/28 06:19:55;;;;;;;0.00;0.00;;;16.70;75.50;;;;;;5048903;28;20045;-68
2022/07/28 06:22:20;;;;;;;0.00;0.00;;;16.70;74.90;;;;;;5048341;28;20040;-68
2022/07/28 06:24:46;;;;;;;0.00;0.00;;;16.80;74.70;;;;;;5047649;28;20053;-68
2022/07/28 06:27:12;;;;;;;0.00;0.00;;;16.80;74.30;;;;;;5013847;28;20045;-69
2022/07/28 06:29:37;;;;;;;0.00;0.00;;;16.80;74.20;;;;;;5014504;28;20045;-68
2022/07/28 06:32:03;;;;;;;0.10;0.10;;;16.90;73.80;;;;;;5047768;28;20045;-68
2022/07/28 06:34:29;;;;;;;0.00;0.00;;;16.90;73.20;;;;;;5047862;28;20474;-72
2022/07/28 06:36:54;;;;;;;0.00;0.00;;;16.90;72.30;;;;;;5045864;28;20087;-68
2022/07/28 06:39:20;;;;;;;0.00;0.00;;;16.90;72.10;;;;;;5002373;28;20049;-67
2022/07/28 06:41:46;;;;;;;0.00;0.00;;;17.00;70.80;;;;;;5040504;28;20060;-67
2022/07/28 06:44:12;;;;;;;0.40;0.40;;;17.00;70.90;;;;;;5027896;28;20053;-67
2022/07/28 06:46:37;;;;;;;0.00;0.00;;;17.10;70.80;;;;;;5029424;28;20048;-67
2022/07/28 06:49:03;;;;;;;0.00;0.00;;;17.10;70.90;;;;;;5047382;28;20066;-67
2022/07/28 06:51:29;;;;;;;0.00;0.00;;;17.20;70.60;;;;;;5047041;28;20060;-67
2022/07/28 06:53:56;;;;;;;0.00;0.00;;;17.20;69.80;;;;;;5045498;28;20044;-68
2022/07/28 06:56:22;;;;;;;0.00;0.00;;;17.20;70.20;;;;;;5050618;28;20041;-68
2022/07/28 06:58:48;;;;;;;0.00;0.00;;;17.20;70.40;;;;;;5016496;28;20044;-69
2022/07/28 07:01:14;;;;;;;0.00;0.00;;;17.30;70.60;;;;;;5025860;28;20068;-69
2022/07/28 07:03:41;;;;;;;0.00;0.00;;;17.30;70.20;;;;;;5023181;28;20358;-68
2022/07/28 07:06:07;;;;;;;0.00;0.00;;;17.40;69.90;;;;;;5035368;28;20492;-69
2022/07/28 07:08:33;;;;;;;0.00;0.00;;;17.30;69.50;;;;;;5028141;28;20136;-69
2022/07/28 07:10:58;;;;;;;0.00;0.00;;;17.40;69.30;;;;;;5030885;28;20124;-69
2022/07/28 07:13:24;;;;;;;0.00;0.00;;;17.40;69.50;;;;;;5048081;28;20115;-69
2022/07/28 07:15:50;;;;;;;0.00;0.00;;;17.50;69.00;;;;;;5048634;28;20041;-68
2022/07/28 07:18:16;;;;;;;0.00;0.00;;;17.40;68.90;;;;;;5046888;28;20488;-68
2022/07/28 07:20:41;;;;;;;0.00;0.00;;;17.50;68.90;;;;;;5048926;28;20048;-68
2022/07/28 07:23:07;;;;;;;0.00;0.00;;;17.50;68.90;;;;;;5048408;28;20033;-68
2022/07/28 07:25:32;;;;;;;0.00;0.00;;;17.50;68.20;;;;;;5027238;28;20146;-69
2022/07/28 07:27:58;;;;;;;0.00;0.00;;;17.50;68.30;;;;;;5046660;28;20037;-69
2022/07/28 07:30:24;;;;;;;0.00;0.00;;;17.50;68.20;;;;;;5033568;28;20048;-70
2022/07/28 07:32:49;;;;;;;0.00;0.00;;;17.60;68.50;;;;;;5050859;28;20049;-69
2022/07/28 07:35:15;;;;;;;0.00;0.00;;;17.60;68.10;;;;;;5049776;28;20120;-69
2022/07/28 07:37:40;;;;;;;0.00;0.00;;;17.70;68.00;;;;;;5032943;28;20045;-69
2022/07/28 07:40:07;;;;;;;0.00;0.00;;;17.80;68.30;;;;;;5029081;28;20596;-69
2022/07/28 07:42:33;;;;;;;0.00;0.00;;;17.90;67.40;;;;;;5050096;28;20049;-70
2022/07/28 07:44:59;;;;;;;0.00;0.00;;;18.00;67.60;;;;;;5050755;28;20037;-70
2022/07/28 07:47:24;;;;;;;0.00;0.00;;;18.00;67.70;;;;;;5050949;28;20125;-69
2022/07/28 07:49:50;;;;;;;0.00;0.00;;;18.00;67.10;;;;;;5050360;28;20107;-69
2022/07/28 07:52:16;;;;;;;0.00;0.00;;;18.00;67.70;;;;;;5049792;28;20672;-70
2022/07/28 07:54:42;;;;;;;0.00;0.00;;;18.10;67.30;;;;;;5050512;28;20123;-70
2022/07/28 07:57:08;;;;;;;0.00;0.00;;;18.10;67.30;;;;;;5049589;28;20033;-69
2022/07/28 07:59:34;;;;;;;0.00;0.00;;;18.10;67.10;;;;;;5047557;28;20040;-70
2022/07/28 08:02:00;;;;;;;0.00;0.00;;;18.10;67.20;;;;;;5047662;28;20037;-69
2022/07/28 08:04:26;;;;;;;0.00;0.00;;;18.10;66.70;;;;;;5048927;28;20479;-69
2022/07/28 08:06:52;;;;;;;0.00;0.00;;;18.10;66.70;;;;;;5048747;28;20037;-69
2022/07/28 08:09:18;;;;;;;0.00;0.00;;;18.10;66.10;;;;;;5035182;28;20045;-69
2022/07/28 08:11:43;;;;;;;0.00;0.00;;;18.10;66.80;;;;;;5047275;28;20553;-70
2022/07/28 08:14:09;;;;;;;0.00;0.00;;;18.20;67.00;;;;;;5015944;28;20116;-71
2022/07/28 08:16:35;;;;;;;0.00;0.00;;;18.30;66.50;;;;;;5049204;28;20045;-69
2022/07/28 08:19:03;;;;;;;0.00;0.00;;;18.30;66.60;;;;;;5050203;28;20041;-69
2022/07/28 08:21:29;;;;;;;0.00;0.00;;;18.30;66.30;;;;;;5049907;28;20119;-70
2022/07/28 08:23:56;;;;;;;0.00;0.00;;;18.40;66.40;;;;;;5049713;28;20049;-69
2022/07/28 08:26:22;;;;;;;0.00;0.00;;;18.50;66.00;;;;;;5050426;28;20071;-70
2022/07/28 08:28:48;;;;;;;0.00;0.00;;;18.50;66.20;;;;;;5052749;28;20033;-68
2022/07/28 08:31:15;;;;;;;0.00;0.00;;;18.50;65.70;;;;;;5059989;28;20040;-70
2022/07/28 08:33:44;;;;;;;0.00;0.00;;;18.50;65.00;;;;;;5052409;28;20567;-69
2022/07/28 08:36:10;;;;;;;0.00;0.00;;;18.50;65.60;;;;;;5050145;28;20040;-67
2022/07/28 08:38:35;;;;;;;0.00;0.00;;;18.50;65.70;;;;;;5031035;28;20045;-67
2022/07/28 08:41:03;;;;;;;0.00;0.00;;;18.50;65.60;;;;;;5049535;28;20057;-70
2022/07/28 08:43:37;;;;;;;0.00;0.00;;;18.50;65.50;;;;;;5049894;28;20049;-70
2022/07/28 08:46:07;;;;;;;0.00;0.00;;;18.50;65.70;;;;;;5049700;28;20045;-69
2022/07/28 08:48:36;;;;;;;0.00;0.00;;;18.50;65.60;;;;;;5049675;28;20124;-68
2022/07/28 08:51:10;;;;;;;0.00;0.00;;;18.60;65.60;;;;;;5049885;28;20045;-74
2022/07/28 08:53:38;;;;;;;0.00;0.00;;;18.60;64.50;;;;;;5048008;28;20044;-73
2022/07/28 08:56:06;;;;;;;0.00;0.00;;;18.50;63.60;;;;;;5061645;28;20052;-67
2022/07/28 08:58:34;;;;;;;0.00;0.00;;;18.40;63.80;;;;;;5048040;28;20041;-71
2022/07/28 09:01:00;;;;;;;0.00;0.00;;;18.50;64.90;;;;;;5042882;28;20040;-73
2022/07/28 09:03:27;;;;;;;0.00;0.00;;;18.50;65.50;;;;;;5015089;28;20478;-69
2022/07/28 09:05:53;;;;;;;0.00;0.00;;;18.60;65.60;;;;;;5049449;28;20128;-70
2022/07/28 09:08:19;;;;;;;0.00;0.00;;;18.50;65.50;;;;;;5047526;28;20045;-71
2022/07/28 09:10:49;;;;;;;0.00;0.00;;;18.60;65.30;;;;;;5040101;28;20064;-71
2022/07/28 09:13:15;;;;;;;0.00;0.00;;;18.60;64.40;;;;;;5030479;28;20041;-71
2022/07/28 09:15:43;;;;;;;0.00;0.00;;;18.60;63.70;;;;;;5047737;28;20041;-69
2022/07/28 09:18:09;;;;;;;0.00;0.00;;;18.70;64.60;;;;;;5047856;28;20052;-68
2022/07/28 09:20:38;;;;;;;0.00;0.00;;;18.60;64.40;;;;;;5046261;28;20041;-70
2022/07/28 09:23:05;;;;;;;0.00;0.00;;;18.60;62.90;;;;;;5028141;28;20620;-67
2022/07/28 09:25:32;;;;;;;0.00;0.00;;;18.60;62.80;;;;;;5048684;28;20095;-67
2022/07/28 09:28:15;;;;;;;0.00;0.00;;;18.70;63.50;;;;;;5047702;28;20040;-67
2022/07/28 09:30:48;;;;;;;0.00;0.00;;;18.80;63.80;;;;;;5042987;28;20829;-67
2022/07/28 09:33:15;;;;;;;0.00;0.00;;;18.90;63.90;;;;;;5044670;28;20041;-67
2022/07/28 09:35:46;;;;;;;0.00;0.00;;;19.00;63.40;;;;;;5048066;28;20716;-68
2022/07/28 09:38:12;;;;;;;0.00;0.00;;;19.10;62.30;;;;;;5047753;28;20037;-67
2022/07/28 09:40:39;;;;;;;0.00;0.00;;;19.20;62.60;;;;;;5047473;28;20425;-67
2022/07/28 09:43:05;;;;;;;0.00;0.00;;;19.40;62.30;;;;;;5045108;28;20049;-67
2022/07/28 09:45:30;;;;;;;0.13;0.13;;;19.50;62.00;;;;;;5044232;28;20497;-67
2022/07/28 09:48:12;;;;;;;0.00;0.00;;;19.60;61.40;;;;;;5046515;28;20069;-68
2022/07/28 09:50:42;;;;;;;0.00;0.00;;;19.80;61.40;;;;;;5042143;28;20102;-67
2022/07/28 09:53:21;;;;;;;0.00;0.00;;;19.80;61.90;;;;;;5046855;28;20048;-67
2022/07/28 09:56:01;;;;;;;0.00;0.00;;;19.90;60.70;;;;;;5048456;28;20045;-69
2022/07/28 09:58:30;;;;;;;0.00;0.00;;;20.00;61.60;;;;;;5003281;28;20495;-67
2022/07/28 10:01:03;;;;;;;0.40;0.40;;;20.00;61.50;;;;;;5048654;28;20051;-67
2022/07/28 10:03:29;;;;;;;0.00;0.00;;;19.90;60.70;;;;;;5048053;28;20041;-67
2022/07/28 10:05:57;;;;;;;0.00;0.00;;;19.90;60.40;;;;;;5046050;28;20044;-68
2022/07/28 10:08:44;;;;;;;0.00;0.00;;;19.90;61.00;;;;;;5047187;28;20531;-68
2022/07/28 10:11:11;;;;;;;0.00;0.00;;;19.90;60.80;;;;;;5047791;28;20057;-67
2022/07/28 10:14:01;;;;;;;0.00;0.00;;;19.90;60.50;;;;;;5045322;28;20060;-67
2022/07/28 10:16:30;;;;;;;0.00;0.00;;;20.00;59.80;;;;;;5036549;28;20064;-68
2022/07/28 10:18:58;;;;;;;0.00;0.00;;;20.00;59.40;;;;;;5030328;28;20463;-67
2022/07/28 10:21:25;;;;;;;0.00;0.00;;;20.00;59.00;;;;;;5047072;28;20140;-68
2022/07/28 10:23:57;;;;;;;0.00;0.00;;;20.00;60.00;;;;;;5042011;28;20045;-67
2022/07/28 10:26:30;;;;;;;0.00;0.00;;;20.00;58.70;;;;;;5048328;28;20513;-68
2022/07/28 10:28:57;;;;;;;0.00;0.00;;;20.00;60.00;;;;;;5022703;28;20111;-66
2022/07/28 10:31:37;;;;;;;0.00;0.00;;;19.90;59.80;;;;;;5033813;28;20074;-68
2022/07/28 10:34:06;;;;;;;0.00;0.00;;;20.00;59.80;;;;;;5051368;28;20045;-68
2022/07/28 10:36:33;;;;;;;0.00;0.00;;;20.10;60.40;;;;;;5034129;28;20037;-68
2022/07/28 10:39:10;;;;;;;0.00;0.00;;;20.30;59.90;;;;;;5034159;28;20498;-68
2022/07/28 10:41:39;;;;;;;0.00;0.00;;;20.50;58.10;;;;;;5051728;28;20061;-68
2022/07/28 10:44:06;;;;;;;0.00;0.00;;;20.50;59.60;;;;;;5052275;28;20547;-68
2022/07/28 10:46:33;;;;;;;0.00;0.00;;;20.50;58.30;;;;;;5051944;28;20044;-67
2022/07/28 10:49:00;;;;;;;0.00;0.00;;;20.50;57.40;;;;;;5052404;28;20100;-68
2022/07/28 10:51:26;;;;;;;0.00;0.00;;;20.40;58.00;;;;;;5052091;28;20049;-68
2022/07/28 10:54:01;;;;;;;0.00;0.00;;;20.40;58.50;;;;;;5047881;28;20121;-63
2022/07/28 10:56:47;;;;;;;0.00;0.00;;;20.30;59.30;;;;;;5045785;28;20111;-69
2022/07/28 10:59:33;;;;;;;0.00;0.00;;;20.30;58.50;;;;;;5040864;28;20049;-69
2022/07/28 11:01:59;;;;;;;0.00;0.00;;;20.30;57.50;;;;;;5043975;28;20567;-69
2022/07/28 11:04:43;;;;;;;0.00;0.00;;;20.30;58.00;;;;;;5051164;28;20045;-68
2022/07/28 11:07:16;;;;;;;0.00;0.00;;;20.20;58.00;;;;;;5051278;28;20057;-68
2022/07/28 11:09:43;;;;;;;0.15;0.15;;;20.20;57.60;;;;;;5033584;28;20432;-68
2022/07/28 11:12:14;;;;;;;0.00;0.00;;;20.20;58.70;;;;;;5051770;28;20131;-68
2022/07/28 11:14:41;;;;;;;0.00;0.00;;;20.10;58.20;;;;;;5051188;28;20049;-68
2022/07/28 11:17:06;;;;;;;0.00;0.00;;;20.20;58.00;;;;;;5047864;28;20057;-68
2022/07/28 11:19:44;;;;;;;0.00;0.00;;;20.20;58.30;;;;;;5049655;28;20051;-68
2022/07/28 11:22:20;;;;;;;0.00;0.00;;;20.20;56.50;;;;;;5032090;28;20656;-67
2022/07/28 11:25:04;;;;;;;0.00;0.00;;;20.30;57.50;;;;;;5048605;28;20044;-68
2022/07/28 11:30:08;;;;;;;0.00;0.00;;;20.40;58.50;;;;;;5049891;28;20052;-68
2022/07/28 11:32:49;;;;;;;0.00;0.00;;;20.40;58.40;;;;;;5050221;28;20049;-68
2022/07/28 11:35:25;;;;;;;0.00;0.00;;;20.40;58.50;;;;;;5050823;28;20045;-68
2022/07/28 11:37:59;;;;;;;0.00;0.00;;;20.50;58.50;;;;;;5050383;28;20040;-68
2022/07/28 11:40:49;;;;;;;0.00;0.00;;;20.40;57.90;;;;;;5049425;28;20151;-68
2022/07/28 11:43:28;;;;;;;0.00;0.00;;;20.30;57.30;;;;;;5021951;28;20565;-68
2022/07/28 11:46:16;;;;;;;0.00;0.00;;;20.20;58.30;;;;;;5050296;28;20055;-69
2022/07/28 11:48:46;;;;;;;0.00;0.00;;;20.10;58.20;;;;;;5050649;28;20051;-69
2022/07/28 11:51:12;;;;;;;0.00;0.00;;;20.00;59.00;;;;;;5050468;28;20191;-69
2022/07/28 11:53:45;;;;;;;0.00;0.00;;;20.00;59.20;;;;;;5049546;28;20040;-69
2022/07/28 11:56:13;;;;;;;0.00;0.00;;;19.90;59.10;;;;;;5039729;28;20057;-69
2022/07/28 11:58:40;;;;;;;0.00;0.00;;;19.90;59.40;;;;;;5049996;28;20045;-69
2022/07/28 12:01:16;;;;;;;0.00;0.00;;;19.80;59.60;;;;;;5047311;28;20110;-69
2022/07/28 12:03:43;;;;;;;0.03;0.03;;;19.80;59.80;;;;;;5042562;28;20079;-69
2022/07/28 12:06:10;;;;;;;0.00;0.00;;;19.80;60.10;;;;;;5049881;28;20053;-69
2022/07/28 12:08:58;;;;;;;0.00;0.00;;;19.70;60.10;;;;;;5049625;28;20033;-69
2022/07/28 12:11:25;;;;;;;0.00;0.00;;;19.60;59.70;;;;;;5049880;28;20057;-69
2022/07/28 12:14:05;;;;;;;0.00;0.00;;;19.60;59.60;;;;;;5033231;28;20041;-69
2022/07/28 12:16:33;;;;;;;0.00;0.00;;;19.60;59.60;;;;;;5044478;28;20049;-68
2022/07/28 12:19:00;;;;;;;0.00;0.00;;;19.50;59.80;;;;;;5030636;28;20045;-68
2022/07/28 12:21:40;;;;;;;0.00;0.00;;;19.40;59.80;;;;;;5031501;28;20091;-68
2022/07/28 12:24:15;;;;;;;0.40;0.40;;;19.40;60.30;;;;;;5031688;28;20045;-68
2022/07/28 12:26:42;;;;;;;0.00;0.00;;;19.40;59.90;;;;;;5049207;28;20061;-68
2022/07/28 12:29:13;;;;;;;0.00;0.00;;;19.30;58.80;;;;;;5048430;28;20041;-68
2022/07/28 12:31:49;;;;;;;0.00;0.00;;;19.30;59.20;;;;;;5052554;28;20049;-70
2022/07/28 12:34:14;;;;;;;0.00;0.00;;;19.30;59.20;;;;;;5049400;28;20048;-68
2022/07/28 12:36:40;;;;;;;0.00;0.00;;;19.40;59.50;;;;;;5031359;28;20057;-68
2022/07/28 12:39:06;;;;;;;0.00;0.00;;;19.50;58.70;;;;;;5031364;28;20141;-69
2022/07/28 12:41:37;;;;;;;0.00;0.00;;;19.50;58.50;;;;;;5048553;28;20052;-68
2022/07/28 12:44:04;;;;;;;0.00;0.00;;;19.50;58.40;;;;;;5039384;28;20041;-69
2022/07/28 12:46:31;;;;;;;0.00;0.00;;;19.50;58.00;;;;;;5048388;28;20141;-68
2022/07/28 12:48:58;;;;;;;0.20;0.20;;;19.60;57.80;;;;;;5048630;28;20056;-69
2022/07/28 12:51:32;;;;;;;0.00;0.00;;;19.60;58.00;;;;;;5048400;28;20127;-70
2022/07/28 12:53:57;;;;;;;0.00;0.00;;;19.70;57.50;;;;;;5048484;28;20049;-69
2022/07/28 12:56:23;;;;;;;0.00;0.00;;;19.70;56.70;;;;;;5048685;28;20052;-70
2022/07/28 12:59:06;;;;;;;0.00;0.00;;;19.80;57.00;;;;;;5031433;28;20053;-70
2022/07/28 13:01:54;;;;;;;0.00;0.00;;;19.90;56.30;;;;;;5038050;28;20413;-69